Photometre #642[NE_1.2] Dushanbe AOT

File : 20200923_642.hum

23/09/2020,02:43:27,TEMP=17.7,BA=5.16,STAT.A=4.5,ExtBa=13.57
23/09/2020,02:46:02,TEMP=17.9,BA=5.16,STAT.A=4.5,ExtBa=13.57
23/09/2020,02:51:53,TEMP=18.1,BA=5.40,STAT.A=4.5,ExtBa=13.58
23/09/2020,02:58:36,TEMP=18.7,BA=5.40,STAT.C=4.5,ExtBa=13.64
23/09/2020,03:13:37,TEMP=19.9,BA=5.16,STAT.A=5.0,ExtBa=13.61
23/09/2020,03:15:32,TEMP=20.2,BA=5.16,STAT.A=4.5,ExtBa=13.62
23/09/2020,03:26:29,TEMP=20.6,BA=5.44,STAT.A=5.0,ExtBa=13.84
23/09/2020,03:39:53,TEMP=21.8,BA=5.40,STAT.A=5.0,ExtBa=14.01
23/09/2020,03:56:44,TEMP=22.9,BA=5.44,STAT.B=5.0,ExtBa=14.15
23/09/2020,04:06:01,TEMP=23.7,BA=5.20,STAT.D=5.0,ExtBa=13.69
23/09/2020,04:17:19,TEMP=23.7,BA=5.36,STAT.F,ExtBa=14.14
23/09/2020,04:32:17,TEMP=23.9,BA=5.20,STAT.D=5.0,ExtBa=13.76
23/09/2020,04:47:18,TEMP=24.4,BA=5.36,STAT.D=5.5,ExtBa=14.20
23/09/2020,05:02:17,TEMP=25.3,BA=5.36,STAT.D=5.5,ExtBa=14.20
23/09/2020,05:17:19,TEMP=26.3,BA=5.36,STAT.F,ExtBa=14.16
23/09/2020,05:32:18,TEMP=27.2,BA=5.24,STAT.D=5.5,ExtBa=13.78
23/09/2020,05:47:18,TEMP=27.7,BA=5.32,STAT.D=5.5,ExtBa=14.15
23/09/2020,06:02:18,TEMP=28.5,BA=5.36,STAT.D=5.5,ExtBa=14.13
23/09/2020,06:17:19,TEMP=28.5,BA=5.36,STAT.F,ExtBa=14.11
23/09/2020,06:32:47,TEMP=28.4,BA=5.24,STAT.D=5.5,ExtBa=13.74
23/09/2020,06:47:18,TEMP=28.5,BA=5.32,STAT.D=5.5,ExtBa=14.12
23/09/2020,07:02:18,TEMP=29.4,BA=5.36,STAT.D=5.5,ExtBa=14.07
23/09/2020,07:17:20,TEMP=29.5,BA=5.36,STAT.F,ExtBa=14.05
23/09/2020,07:32:18,TEMP=29.3,BA=5.36,STAT.D=5.5,ExtBa=14.04
23/09/2020,07:47:18,TEMP=29.7,BA=5.36,STAT.D=6.0,ExtBa=14.04
23/09/2020,08:02:18,TEMP=30.2,BA=5.36,STAT.D=6.0,ExtBa=14.03
23/09/2020,08:17:20,TEMP=30.2,BA=5.36,STAT.F,ExtBa=14.03
23/09/2020,08:32:18,TEMP=29.9,BA=5.28,STAT.D=5.5,ExtBa=13.83
23/09/2020,08:47:18,TEMP=29.9,BA=5.36,STAT.D=6.0,ExtBa=14.05
23/09/2020,09:02:18,TEMP=30.4,BA=5.36,STAT.D=6.0,ExtBa=14.04
23/09/2020,09:17:19,TEMP=31.0,BA=5.36,STAT.F,ExtBa=14.00
23/09/2020,09:32:17,TEMP=30.2,BA=5.28,STAT.D=6.0,ExtBa=13.75
23/09/2020,09:47:17,TEMP=30.3,BA=5.36,STAT.D=6.0,ExtBa=14.01
23/09/2020,10:02:17,TEMP=30.4,BA=5.36,STAT.D=6.0,ExtBa=13.99
23/09/2020,10:17:19,TEMP=30.5,BA=5.36,STAT.F,ExtBa=13.96
23/09/2020,10:32:17,TEMP=30.0,BA=5.28,STAT.D=5.5,ExtBa=13.67
23/09/2020,10:37:54,TEMP=30.0,BA=5.28,STAT.B=6.0,ExtBa=13.82
23/09/2020,10:54:45,TEMP=29.6,BA=5.36,STAT.A=5.5,ExtBa=13.87
23/09/2020,11:08:07,TEMP=29.6,BA=5.36,STAT.A=5.5,ExtBa=13.87
23/09/2020,11:19:04,TEMP=29.1,BA=5.36,STAT.A=5.5,ExtBa=13.80
23/09/2020,11:28:13,TEMP=28.3,BA=5.28,STAT.A=5.5,ExtBa=13.74
23/09/2020,11:36:00,TEMP=27.6,BA=5.36,STAT.C=5.5,ExtBa=13.70
23/09/2020,11:50:39,TEMP=26.7,BA=5.28,STAT.A=5.5,ExtBa=13.56
23/09/2020,11:52:33,TEMP=26.8,BA=5.28,STAT.A=5.5,ExtBa=13.57
23/09/2020,11:54:28,TEMP=26.7,BA=5.28,STAT.A=5.5,ExtBa=13.56
23/09/2020,11:58:17,TEMP=26.2,BA=5.28,STAT.A=5.5,ExtBa=13.56
23/09/2020,12:02:22,TEMP=26.0,BA=5.32,STAT.B=5.5,ExtBa=13.56
23/09/2020,12:11:29,TEMP=25.6,BA=5.28,STAT.A=5.5,ExtBa=13.55
23/09/2020,12:17:40,TEMP=25.1,BA=5.28,STAT.A=5.5,ExtBa=13.55
23/09/2020,12:23:10,TEMP=24.8,BA=5.32,STAT.A=5.5,ExtBa=13.56
23/09/2020,12:27:44,TEMP=24.6,BA=5.32,STAT.A=5.5,ExtBa=13.55
23/09/2020,12:31:34,TEMP=24.4,BA=5.32,STAT.A=5.5,ExtBa=13.55
23/09/2020,12:34:51,TEMP=24.3,BA=5.32,STAT.A=5.5,ExtBa=13.55